Time;durP1;ratioP1;P1;durP2;ratioP2;P2;SDS_P1;SDS_P2;PMS_P1;PMS_P2;Temp;Humidity;BMP_temperature;BMP_pressure;BME280_temperature;BME280_humidity;BME280_pressure;Samples;Min_cycle;Max_cycle;Signal;HPM_P1;HPM_P2
2023/11/02 00:06:04;;;;;;;;;;;11.50;99.90;;;;;;6637590;88;20538;-80
2023/11/02 00:16:05;;;;;;;;;;;11.50;99.90;;;;;;6648823;88;20073;-79
2023/11/02 00:26:06;;;;;;;;;;;11.60;99.90;;;;;;6628330;88;20548;-79
2023/11/02 00:36:07;;;;;;;;;;;11.60;99.90;;;;;;6637519;89;20180;-79
2023/11/02 00:46:07;;;;;;;;;;;11.60;99.90;;;;;;6620572;88;20097;-80
2023/11/02 00:56:08;;;;;;;;;;;11.60;99.90;;;;;;6635435;88;20059;-80
2023/11/02 01:06:13;;;;;;;;;;;11.60;99.90;;;;;;6641523;88;20054;-80
2023/11/02 01:16:14;;;;;;;;;;;11.70;99.90;;;;;;6637230;88;20094;-79
2023/11/02 01:26:33;;;;;;;;;;;11.60;99.90;;;;;;6632661;89;20127;-79
2023/11/02 01:36:35;;;;;;;;;;;11.60;99.90;;;;;;6652832;88;20776;-80
2023/11/02 01:46:54;;;;;;;;;;;11.50;99.90;;;;;;6657757;88;20068;-80
2023/11/02 02:07:08;;;;;;;;;;;11.40;99.90;;;;;;6677631;89;20053;-79
2023/11/02 02:17:18;;;;;;;;;;;11.40;99.90;;;;;;6683090;88;20057;-80
2023/11/02 02:27:30;;;;;;;;;;;11.40;99.90;;;;;;6672523;89;20062;-79
2023/11/02 02:37:36;;;;;;;;;;;11.40;99.90;;;;;;6666759;89;20058;-79
2023/11/02 02:47:37;;;;;;;;;;;11.40;99.90;;;;;;6665917;89;20070;-80
2023/11/02 02:57:41;;;;;;;;;;;11.50;99.90;;;;;;6666982;89;20553;-79
2023/11/02 03:07:44;;;;;;;;;;;11.50;99.90;;;;;;6666593;89;20091;-80
2023/11/02 03:18:03;;;;;;;;;;;11.50;99.90;;;;;;6667373;89;20050;-80
2023/11/02 03:28:14;;;;;;;;;;;11.50;99.90;;;;;;6663189;89;20157;-81
2023/11/02 03:38:14;;;;;;;;;;;11.60;99.90;;;;;;6678260;88;20092;-81
2023/11/02 03:48:15;;;;;;;;;;;11.60;99.90;;;;;;6661972;89;20074;-80
2023/11/02 03:58:26;;;;;;;;;;;11.50;99.90;;;;;;6661555;89;20157;-81
2023/11/02 04:08:30;;;;;;;;;;;11.50;99.90;;;;;;6678700;88;20041;-82
2023/11/02 04:18:30;;;;;;;;;;;11.60;99.90;;;;;;6660394;89;20082;-80
2023/11/02 04:28:32;;;;;;;;;;;11.50;99.90;;;;;;6661552;89;20056;-80
2023/11/02 04:38:33;;;;;;;;;;;11.60;99.90;;;;;;6659548;89;20064;-79
2023/11/02 04:48:33;;;;;;;;;;;11.30;99.90;;;;;;6662145;89;20061;-82
2023/11/02 04:58:34;;;;;;;;;;;10.80;99.90;;;;;;6668493;89;20091;-83
2023/11/02 05:08:35;;;;;;;;;;;10.80;99.90;;;;;;6672556;89;20068;-82
2023/11/02 05:18:35;;;;;;;;;;;10.90;99.90;;;;;;6670270;89;20092;-84
2023/11/02 05:28:36;;;;;;;;;;;11.10;99.90;;;;;;6682704;88;20070;-80
2023/11/02 05:38:36;;;;;;;;;;;11.20;99.90;;;;;;6668390;89;20131;-80
2023/11/02 05:48:37;;;;;;;;;;;11.10;99.90;;;;;;6675598;89;20121;-80
2023/11/02 05:58:37;;;;;;;;;;;11.00;99.90;;;;;;6666888;89;20071;-79
2023/11/02 06:08:38;;;;;;;;;;;11.00;99.90;;;;;;6669089;89;20066;-80
2023/11/02 06:18:38;;;;;;;;;;;11.20;99.90;;;;;;6667818;89;20097;-79
2023/11/02 06:28:38;;;;;;;;;;;11.20;99.90;;;;;;6669261;89;20131;-79
2023/11/02 06:38:40;;;;;;;;;;;11.40;99.90;;;;;;6683254;88;20084;-80
2023/11/02 06:48:40;;;;;;;;;;;11.40;99.90;;;;;;6684656;88;20734;-79
2023/11/02 06:58:41;;;;;;;;;;;11.40;99.90;;;;;;6663204;89;20090;-80
2023/11/02 07:08:41;;;;;;;;;;;11.40;99.90;;;;;;6670362;89;20072;-79
2023/11/02 07:18:41;;;;;;;;;;;11.50;99.90;;;;;;6671787;89;20478;-80
2023/11/02 07:28:42;;;;;;;;;;;11.40;99.90;;;;;;6655909;89;20536;-80
2023/11/02 07:38:42;;;;;;;;;;;11.30;99.90;;;;;;6656991;89;20061;-80
2023/11/02 07:48:43;;;;;;;;;;;11.40;99.90;;;;;;6663784;88;20124;-80
2023/11/02 08:08:47;;;;;;;;;;;11.70;99.90;;;;;;6661772;89;20065;-80
2023/11/02 08:18:48;;;;;;;;;;;11.90;99.90;;;;;;6673497;88;20079;-80
2023/11/02 08:28:53;;;;;;;;;;;12.10;99.90;;;;;;6674917;88;20069;-83
2023/11/02 08:38:55;;;;;;;;;;;12.20;99.90;;;;;;6675173;87;20071;-83
2023/11/02 08:48:55;;;;;;;;;;;12.40;99.90;;;;;;6674714;88;20084;-83
2023/11/02 08:58:56;;;;;;;;;;;12.40;99.90;;;;;;6675568;87;20217;-82
2023/11/02 09:08:56;;;;;;;;;;;12.50;99.90;;;;;;6781821;87;20096;-85
2023/11/02 09:18:58;;;;;;;;;;;12.60;99.90;;;;;;6784001;87;20116;-85
2023/11/02 09:40:00;;;;;;;;;;;13.10;99.90;;;;;;6723519;78;20177;-86
2023/11/02 10:11:25;;;;;;;;;;;14.60;99.90;;;;;;6734901;88;20042;-85
2023/11/02 10:21:25;;;;;;;;;;;14.90;99.90;;;;;;6733800;88;20082;-85
2023/11/02 10:31:30;;;;;;;;;;;14.90;99.90;;;;;;6731775;88;20084;-85
2023/11/02 10:41:32;;;;;;;;;;;15.00;99.90;;;;;;6730897;88;20079;-83
2023/11/02 10:51:34;;;;;;;;;;;15.10;99.90;;;;;;6718856;88;20653;-82
2023/11/02 11:01:36;;;;;;;;;;;15.10;99.90;;;;;;6705486;88;20056;-83
2023/11/02 11:11:37;;;;;;;;;;;15.10;99.90;;;;;;6719132;88;20113;-83
2023/11/02 11:21:39;;;;;;;;;;;15.00;99.90;;;;;;6714661;88;20490;-81
2023/11/02 11:31:57;;;;;;;;;;;15.10;99.90;;;;;;6711100;88;20127;-81
2023/11/02 11:41:58;;;;;;;;;;;15.30;99.90;;;;;;6710441;88;20095;-81
2023/11/02 11:51:59;;;;;;;;;;;15.30;99.90;;;;;;6716040;88;20082;-82
2023/11/02 12:02:19;;;;;;;;;;;15.30;99.90;;;;;;6713639;88;20074;-82
2023/11/02 12:33:04;;;;;;;;;;;15.30;99.90;;;;;;6749984;88;20077;-82
2023/11/02 12:43:05;;;;;;;;;;;15.20;99.90;;;;;;6748783;88;20175;-85
2023/11/02 12:53:06;;;;;;;;;;;16.70;99.90;;;;;;6712317;88;20851;-85
2023/11/02 13:03:11;;;;;;;;;;;16.40;99.90;;;;;;6695457;89;20044;-83
2023/11/02 13:13:12;;;;;;;;;;;17.30;99.90;;;;;;6693410;89;20115;-82
2023/11/02 13:44:38;;;;;;;;;;;16.60;99.90;;;;;;6661566;88;20743;-84
2023/11/02 13:54:40;;;;;;;;;;;16.40;99.90;;;;;;6662089;88;20062;-84
2023/11/02 14:15:52;;;;;;;;;;;16.10;99.90;;;;;;6710122;88;20148;-80
2023/11/02 14:25:52;;;;;;;;;;;16.40;99.90;;;;;;6743216;88;20210;-80
2023/11/02 14:35:53;;;;;;;;;;;15.80;99.90;;;;;;6741811;88;20066;-79
2023/11/02 14:45:53;;;;;;;;;;;15.40;99.90;;;;;;6725744;88;20090;-79
2023/11/02 14:55:54;;;;;;;;;;;15.30;99.90;;;;;;6726118;88;20461;-80
2023/11/02 15:05:54;;;;;;;;;;;15.30;99.90;;;;;;6723758;88;20128;-81
2023/11/02 15:15:55;;;;;;;;;;;14.80;99.90;;;;;;6738714;88;20074;-80
2023/11/02 15:25:55;;;;;;;;;;;14.60;99.90;;;;;;6742535;88;20071;-80
2023/11/02 15:35:56;;;;;;;;;;;14.50;99.90;;;;;;6750324;88;20075;-80
2023/11/02 15:45:57;;;;;;;;;;;14.10;99.90;;;;;;6735236;88;20078;-78
2023/11/02 15:55:57;;;;;;;;;;;14.00;99.90;;;;;;6734979;88;20160;-79
2023/11/02 16:05:58;;;;;;;;;;;13.70;99.90;;;;;;6735234;88;20534;-78
2023/11/02 16:16:04;;;;;;;;;;;13.60;99.90;;;;;;6720590;88;20703;-78
2023/11/02 16:26:05;;;;;;;;;;;13.70;99.90;;;;;;6733848;88;20629;-79
2023/11/02 16:36:07;;;;;;;;;;;13.60;99.90;;;;;;6741116;88;20077;-78
2023/11/02 16:46:10;;;;;;;;;;;13.60;99.90;;;;;;6671420;88;20118;-77
2023/11/02 16:56:10;;;;;;;;;;;13.60;99.90;;;;;;6739732;88;20526;-79
2023/11/02 17:06:11;;;;;;;;;;;13.30;99.90;;;;;;6738821;88;20100;-80
2023/11/02 17:16:11;;;;;;;;;;;13.30;99.90;;;;;;6677738;88;20139;-79
2023/11/02 17:26:12;;;;;;;;;;;13.30;99.90;;;;;;6748121;87;20144;-79
2023/11/02 17:36:12;;;;;;;;;;;13.10;99.90;;;;;;6745481;88;20134;-82
2023/11/02 17:46:15;;;;;;;;;;;13.00;99.90;;;;;;6740371;88;20046;-81
2023/11/02 17:56:15;;;;;;;;;;;13.00;99.90;;;;;;6751890;87;20086;-79
2023/11/02 18:06:16;;;;;;;;;;;13.00;99.90;;;;;;6724281;88;20099;-80
2023/11/02 18:16:16;;;;;;;;;;;12.90;99.90;;;;;;6722466;88;20044;-79
2023/11/02 18:26:17;;;;;;;;;;;12.90;99.90;;;;;;6719131;88;21036;-78
2023/11/02 18:36:17;;;;;;;;;;;13.10;99.90;;;;;;6735946;88;20097;-78
2023/11/02 18:46:19;;;;;;;;;;;12.90;99.90;;;;;;6754063;87;20091;-79
2023/11/02 18:56:19;;;;;;;;;;;12.90;99.90;;;;;;6755520;87;20042;-81
2023/11/02 19:06:26;;;;;;;;;;;12.90;99.90;;;;;;6757016;87;20105;-78
2023/11/02 19:16:27;;;;;;;;;;;12.80;99.90;;;;;;6759646;87;20074;-77
2023/11/02 19:26:27;;;;;;;;;;;12.80;99.90;;;;;;6757253;87;20088;-77
2023/11/02 19:36:27;;;;;;;;;;;12.60;99.90;;;;;;6747023;87;20799;-79
2023/11/02 19:46:28;;;;;;;;;;;12.50;99.90;;;;;;6747982;87;20091;-78
2023/11/02 19:56:28;;;;;;;;;;;12.20;99.90;;;;;;6756449;87;20059;-78
2023/11/02 20:06:33;;;;;;;;;;;12.10;99.90;;;;;;6752865;87;20093;-77
2023/11/02 20:16:33;;;;;;;;;;;12.00;99.90;;;;;;6754928;87;20086;-79
2023/11/02 20:37:15;;;;;;;;;;;11.90;99.90;;;;;;6651554;89;20107;-79
2023/11/02 20:47:16;;;;;;;;;;;11.80;99.90;;;;;;6654615;88;20039;-81
2023/11/02 20:57:16;;;;;;;;;;;11.80;99.90;;;;;;6648674;88;20098;-79
2023/11/02 21:07:18;;;;;;;;;;;11.80;99.90;;;;;;6645864;88;20109;-80
2023/11/02 21:17:18;;;;;;;;;;;11.70;99.90;;;;;;6646531;88;20062;-80
2023/11/02 21:27:19;;;;;;;;;;;11.60;99.90;;;;;;6653420;88;20055;-80
2023/11/02 21:37:21;;;;;;;;;;;11.50;99.90;;;;;;6662835;88;20068;-79
2023/11/02 21:47:22;;;;;;;;;;;11.40;99.90;;;;;;6661398;88;20116;-80
2023/11/02 21:57:23;;;;;;;;;;;11.40;99.90;;;;;;6663368;89;20112;-82
2023/11/02 22:07:23;;;;;;;;;;;11.40;99.90;;;;;;6662651;89;20033;-81
2023/11/02 22:17:23;;;;;;;;;;;11.30;99.90;;;;;;6662585;89;20105;-80
2023/11/02 22:27:24;;;;;;;;;;;11.20;99.90;;;;;;6648204;88;20075;-80
2023/11/02 22:37:24;;;;;;;;;;;11.10;99.90;;;;;;6645451;88;20063;-81
2023/11/02 22:47:25;;;;;;;;;;;11.00;99.90;;;;;;6661985;89;20053;-80
2023/11/02 22:57:25;;;;;;;;;;;11.00;99.90;;;;;;6662275;88;20897;-80
2023/11/02 23:07:26;;;;;;;;;;;10.90;99.90;;;;;;6662048;88;20026;-80
2023/11/02 23:17:26;;;;;;;;;;;10.90;99.90;;;;;;6661748;88;20076;-81
2023/11/02 23:27:27;;;;;;;;;;;10.90;99.90;;;;;;6644701;88;20959;-80
2023/11/02 23:37:27;;;;;;;;;;;10.90;99.90;;;;;;6657733;88;20086;-80
2023/11/02 23:47:27;;;;;;;;;;;11.00;99.90;;;;;;6661002;88;20295;-79
2023/11/02 23:57:29;;;;;;;;;;;11.00;99.90;;;;;;6661157;88;20581;-79
